Time;durP1;ratioP1;P1;durP2;ratioP2;P2;SDS_P1;SDS_P2;PMS_P1;PMS_P2;Temp;Humidity;BMP_temperature;BMP_pressure;BME280_temperature;BME280_humidity;BME280_pressure;Samples;Min_cycle;Max_cycle;Signal;HPM_P1;HPM_P2
2023/03/10 00:00:59;;;;;;;7.28;1.80;;;;;;;11.32;100.00;98073.28;6176677;23;20056;-95
2023/03/10 00:04:25;;;;;;;6.82;1.80;;;;;;;11.16;100.00;98072.94;6182555;23;20035;-95
2023/03/10 00:07:13;;;;;;;5.68;1.90;;;;;;;11.26;100.00;98092.34;6162945;23;20068;-95
2023/03/10 00:10:06;;;;;;;9.02;2.08;;;;;;;11.13;100.00;98081.13;6179342;23;20019;-95
2023/03/10 00:13:08;;;;;;;8.35;1.92;;;;;;;11.09;100.00;98059.38;6162290;23;20018;-94
2023/03/10 00:16:19;;;;;;;8.40;1.80;;;;;;;10.74;100.00;98013.88;6183085;23;20024;-94
2023/03/10 00:19:02;;;;;;;4.47;1.42;;;;;;;11.23;100.00;98082.00;6172620;23;20460;-94
2023/03/10 00:22:06;;;;;;;3.28;1.30;;;;;;;11.07;100.00;98055.16;6175272;23;20017;-94
2023/03/10 00:24:58;;;;;;;3.05;0.90;;;;;;;11.29;100.00;98075.34;6201759;23;20115;-94
2023/03/10 00:27:51;;;;;;;2.65;1.00;;;;;;;11.13;100.00;98039.59;6205068;23;20024;-94
2023/03/10 00:30:39;;;;;;;3.28;0.70;;;;;;;11.33;100.00;98044.97;6204651;23;20013;-94
2023/03/10 00:33:09;;;;;;;3.80;1.00;;;;;;;10.94;100.00;97986.53;6205052;23;20040;-94
2023/03/10 00:36:03;;;;;;;1.98;0.57;;;;;;;11.45;100.00;98065.94;6182669;23;20027;-93
2023/03/10 00:38:37;;;;;;;2.13;0.60;;;;;;;10.95;100.00;97974.16;6207233;23;20013;-94
2023/03/10 00:41:46;;;;;;;3.17;0.57;;;;;;;11.13;100.00;97996.38;6197352;23;20444;-92
2023/03/10 00:44:27;;;;;;;3.53;0.70;;;;;;;11.24;100.00;98012.16;6179379;23;20020;-94
2023/03/10 00:47:19;;;;;;;1.77;0.50;;;;;;;11.33;100.00;98014.03;6161427;23;20028;-93
2023/03/10 00:50:15;;;;;;;1.58;0.50;;;;;;;11.45;100.00;98039.44;6176682;23;20085;-94
2023/03/10 00:52:51;;;;;;;1.20;0.55;;;;;;;11.54;100.00;98046.56;6196528;23;20016;-95
2023/03/10 00:55:36;;;;;;;1.80;0.70;;;;;;;11.51;100.00;98030.94;6170039;23;20052;-94
2023/03/10 00:58:28;;;;;;;2.00;0.50;;;;;;;11.32;100.00;98004.41;6193095;23;20103;-93
2023/03/10 01:00:58;;;;;;;3.08;0.60;;;;;;;11.35;100.00;98013.88;6195629;23;20069;-93
2023/03/10 01:03:39;;;;;;;0.88;0.60;;;;;;;11.47;100.00;98016.31;6140135;23;20021;-94
2023/03/10 01:06:24;;;;;;;2.28;0.75;;;;;;;10.98;100.00;97940.28;6184546;23;20025;-95
2023/03/10 01:09:09;;;;;;;2.13;0.73;;;;;;;11.11;100.00;97954.13;6164955;23;20080;-95
2023/03/10 01:11:48;;;;;;;2.03;0.55;;;;;;;11.08;100.00;97956.22;6174191;23;20359;-93
2023/03/10 01:14:35;;;;;;;3.63;0.77;;;;;;;11.15;100.00;97971.44;6156918;23;20021;-92
2023/03/10 01:17:17;;;;;;;2.13;0.60;;;;;;;11.22;100.00;97984.97;6168730;23;20081;-91
2023/03/10 01:19:47;;;;;;;2.78;0.60;;;;;;;11.25;100.00;98011.19;6193078;23;20029;-93
2023/03/10 01:22:43;;;;;;;2.20;0.47;;;;;;;11.24;100.00;98005.06;6174879;23;20040;-93
2023/03/10 01:25:30;;;;;;;1.30;0.80;;;;;;;11.22;100.00;97990.25;6204235;23;20238;-94
2023/03/10 01:28:19;;;;;;;1.90;0.70;;;;;;;11.03;100.00;97958.41;6189464;23;20028;-94
2023/03/10 01:31:01;;;;;;;1.95;0.43;;;;;;;11.16;100.00;97981.06;6181733;23;20320;-93
2023/03/10 01:33:55;;;;;;;1.48;0.80;;;;;;;10.74;100.00;97906.19;6195268;23;20028;-93
2023/03/10 01:36:33;;;;;;;1.00;0.52;;;;;;;11.16;100.00;97975.78;6182425;23;20020;-94
2023/03/10 01:39:18;;;;;;;0.95;0.60;;;;;;;10.61;100.00;97880.94;6187002;23;20068;-93
2023/03/10 01:41:54;;;;;;;2.40;0.70;;;;;;;10.83;100.00;97934.53;6208689;23;20005;-94
2023/03/10 01:44:38;;;;;;;1.38;0.68;;;;;;;11.10;100.00;97964.84;6207973;23;20040;-93
2023/03/10 01:47:13;;;;;;;1.50;0.60;;;;;;;11.18;100.00;97965.84;6203712;23;20024;-94
2023/03/10 01:49:48;;;;;;;1.60;0.43;;;;;;;11.14;100.00;97945.94;6177688;23;20028;-93
2023/03/10 01:52:55;;;;;;;1.02;0.50;;;;;;;11.04;100.00;97931.78;6199099;23;20055;-95
2023/03/10 01:55:45;;;;;;;3.85;0.35;;;;;;;10.84;100.00;97888.56;6182843;23;20036;-92
2023/03/10 01:58:31;;;;;;;3.47;0.40;;;;;;;10.87;100.00;97885.63;6183798;23;20017;-93
2023/03/10 02:01:16;;;;;;;0.50;0.50;;;;;;;10.91;100.00;97883.53;6207157;23;20066;-94
2023/03/10 02:04:14;;;;;;;1.45;0.43;;;;;;;10.96;100.00;97881.34;6164965;23;20056;-94
2023/03/10 02:06:58;;;;;;;0.63;0.30;;;;;;;11.24;100.00;97936.19;6165063;23;20009;-94
2023/03/10 02:09:50;;;;;;;0.93;0.43;;;;;;;11.24;100.00;97922.09;6210768;23;20039;-93
2023/03/10 02:12:43;;;;;;;1.30;0.30;;;;;;;11.08;100.00;97905.88;6189242;23;20009;-93
2023/03/10 02:15:53;;;;;;;1.50;0.40;;;;;;;10.99;100.00;97893.47;6207460;23;20009;-93
2023/03/10 02:18:43;;;;;;;1.02;0.50;;;;;;;10.92;100.00;97884.38;6177534;23;20009;-92
2023/03/10 02:21:58;;;;;;;2.25;0.60;;;;;;;11.11;100.00;97926.81;6166041;23;20058;-93
2023/03/10 02:25:02;;;;;;;1.15;0.68;;;;;;;10.55;100.00;97826.72;6184834;23;20008;-93
2023/03/10 02:28:02;;;;;;;0.75;0.40;;;;;;;10.53;100.00;97826.03;6210875;23;20060;-92
2023/03/10 02:30:49;;;;;;;2.03;0.35;;;;;;;10.90;100.00;97880.06;6210948;23;20033;-92
2023/03/10 02:33:43;;;;;;;1.00;0.20;;;;;;;10.77;100.00;97866.22;6205060;23;20029;-93
2023/03/10 02:36:28;;;;;;;0.47;0.45;;;;;;;11.04;100.00;97901.81;6196420;23;20602;-93
2023/03/10 02:39:02;;;;;;;2.80;0.50;;;;;;;10.64;100.00;97851.56;6147272;23;20080;-93
2023/03/10 02:41:40;;;;;;;1.02;0.50;;;;;;;10.80;100.00;97873.06;6194999;23;20032;-91
2023/03/10 02:44:52;;;;;;;1.17;0.50;;;;;;;10.69;100.00;97858.13;6164313;23;20023;-92
2023/03/10 02:47:28;;;;;;;1.10;0.30;;;;;;;10.87;100.00;97885.63;6190930;23;20013;-93
2023/03/10 02:49:58;;;;;;;1.67;0.40;;;;;;;10.52;100.00;97832.31;6169908;23;20446;-92
2023/03/10 02:52:38;;;;;;;0.45;0.25;;;;;;;10.71;100.00;97864.09;6172779;23;20016;-94
2023/03/10 02:55:35;;;;;;;1.75;0.40;;;;;;;11.02;100.00;97899.31;6180044;23;20023;-95
2023/03/10 02:58:08;;;;;;;0.90;0.47;;;;;;;10.82;100.00;97866.66;6148050;23;20052;-94
2023/03/10 03:00:55;;;;;;;0.80;0.40;;;;;;;10.96;100.00;97885.78;6151407;23;20028;-92
2023/03/10 03:03:23;;;;;;;;;;;;;;;10.99;100.00;97896.13;6202577;23;20017;-94
2023/03/10 03:06:04;;;;;;;0.95;0.40;;;;;;;10.65;100.00;97853.22;6206035;23;19904;-93
2023/03/10 03:08:33;;;;;;;1.17;0.35;;;;;;;10.60;100.00;97852.78;6175601;23;20013;-91
2023/03/10 03:11:16;;;;;;;2.97;0.70;;;;;;;10.74;100.00;97869.13;6160575;23;20013;-92
2023/03/10 03:13:44;;;;;;;1.48;0.35;;;;;;;10.88;100.00;97886.44;6179948;23;20009;-92
2023/03/10 03:16:56;;;;;;;2.65;0.55;;;;;;;10.54;100.00;97872.72;5132980;27;20691;-92
2023/03/10 03:19:46;;;;;;;2.28;0.50;;;;;;;10.28;100.00;97892.59;5106923;28;20051;-92
2023/03/10 03:22:16;;;;;;;1.63;0.70;;;;;;;10.22;100.00;97898.44;5100473;28;20044;-91
2023/03/10 03:24:55;;;;;;;1.05;0.55;;;;;;;10.04;100.00;97887.59;5099039;28;20063;-91
2023/03/10 03:27:36;;;;;;;2.75;0.88;;;;;;;9.67;100.00;97853.66;5099927;28;20067;-91
2023/03/10 03:30:27;;;;;;;1.25;0.50;;;;;;;9.87;100.00;97890.81;5107625;28;20154;-91
2023/03/10 03:33:10;;;;;;;2.58;0.68;;;;;;;9.56;100.00;97839.66;5099508;28;20036;-90
2023/03/10 03:35:47;;;;;;;1.35;0.70;;;;;;;9.69;100.00;97846.44;5127591;28;20058;-92
2023/03/10 03:38:31;;;;;;;1.63;0.70;;;;;;;9.91;100.00;97874.56;5114205;28;20045;-92
2023/03/10 03:41:20;;;;;;;2.63;0.80;;;;;;;9.91;100.00;97869.28;5079807;28;20024;-93
2023/03/10 03:44:03;;;;;;;8.23;0.90;;;;;;;9.82;100.00;97859.47;5131906;27;20039;-91
2023/03/10 03:46:38;;;;;;;0.88;0.45;;;;;;;9.94;100.00;97874.28;5118226;28;20036;-93
2023/03/10 03:49:22;;;;;;;1.60;0.80;;;;;;;9.96;100.00;97869.69;5088801;28;20063;-92
2023/03/10 03:52:06;;;;;;;2.25;0.60;;;;;;;10.00;100.00;97876.41;5103798;28;20039;-93
2023/03/10 03:54:49;;;;;;;3.35;0.88;;;;;;;9.69;100.00;97824.47;5086787;28;20070;-95
2023/03/10 03:57:43;;;;;;;1.90;0.63;;;;;;;10.02;100.00;97850.69;5086177;28;20549;-93
2023/03/10 04:00:32;;;;;;;1.25;0.68;;;;;;;9.89;100.00;97828.06;5111170;28;20060;-93
2023/03/10 04:03:09;;;;;;;5.25;0.77;;;;;;;9.99;100.00;97832.44;5104403;28;20077;-94
2023/03/10 04:06:06;;;;;;;2.30;0.60;;;;;;;10.27;100.00;97877.72;5114294;28;20099;-93
2023/03/10 04:08:59;;;;;;;4.30;0.90;;;;;;;10.30;100.00;97888.88;5113512;28;20498;-92
2023/03/10 04:11:44;;;;;;;1.58;0.60;;;;;;;10.27;100.00;97867.97;5073825;28;20052;-92
2023/03/10 04:14:15;;;;;;;3.13;0.60;;;;;;;10.32;100.00;97872.88;5119872;28;20169;-91
2023/03/10 04:16:43;;;;;;;3.50;0.77;;;;;;;10.30;100.00;97875.66;5100767;28;20052;-93
2023/03/10 04:19:11;;;;;;;2.75;0.68;;;;;;;10.35;100.00;97875.25;5108746;28;20048;-92
2023/03/10 04:21:40;;;;;;;6.28;0.80;;;;;;;10.10;100.00;97826.22;5110159;28;20036;-94
2023/03/10 04:24:12;;;;;;;4.13;0.75;;;;;;;10.36;100.00;97867.19;5109922;28;20750;-94
2023/03/10 04:26:45;;;;;;;2.75;0.52;;;;;;;10.01;100.00;97825.22;5127159;27;20052;-94
2023/03/10 04:29:30;;;;;;;3.38;0.80;;;;;;;9.98;100.00;97820.19;5099048;28;20024;-94
2023/03/10 04:32:04;;;;;;;2.83;0.70;;;;;;;9.90;100.00;97813.91;5099449;28;20092;-92
2023/03/10 04:34:46;;;;;;;2.83;0.65;;;;;;;10.21;100.00;97859.75;5093073;28;20047;-93
2023/03/10 04:37:23;;;;;;;6.82;1.00;;;;;;;10.18;100.00;97861.66;5098897;28;20470;-92
2023/03/10 04:40:08;;;;;;;4.18;1.02;;;;;;;10.28;100.00;97871.44;5091795;28;20044;-93
2023/03/10 04:42:37;;;;;;;1.85;0.60;;;;;;;10.27;100.00;97867.13;5078865;28;20055;-91
2023/03/10 04:45:22;;;;;;;2.35;0.77;;;;;;;10.21;100.00;97850.00;5081735;28;20134;-91
2023/03/10 04:48:03;;;;;;;1.75;0.70;;;;;;;10.28;100.00;97855.56;5083900;28;20052;-92
2023/03/10 04:50:39;;;;;;;5.50;0.70;;;;;;;10.16;100.00;97845.06;5082381;28;20056;-91
2023/03/10 04:53:08;;;;;;;4.93;0.88;;;;;;;10.25;100.00;97854.03;5068437;28;20037;-92
2023/03/10 04:55:46;;;;;;;3.03;0.90;;;;;;;10.16;100.00;97829.19;5093558;28;20052;-91
2023/03/10 04:58:20;;;;;;;3.22;0.70;;;;;;;9.94;100.00;97789.69;5090490;28;20069;-93
2023/03/10 05:01:08;;;;;;;2.90;0.70;;;;;;;10.24;100.00;97840.94;5082711;28;20055;-92
2023/03/10 05:03:38;;;;;;;2.15;0.80;;;;;;;10.33;100.00;97848.94;5079850;28;20052;-92
2023/03/10 05:06:14;;;;;;;3.83;1.00;;;;;;;10.36;100.00;97847.84;5084490;28;20472;-92
2023/03/10 05:08:46;;;;;;;3.15;0.80;;;;;;;10.38;100.00;97840.59;5077532;28;20071;-91
2023/03/10 05:11:13;;;;;;;2.47;0.65;;;;;;;10.26;100.00;97815.19;5074536;28;20143;-90
2023/03/10 05:13:41;;;;;;;3.47;1.02;;;;;;;10.39;100.00;97837.00;5072067;28;20133;-92
2023/03/10 05:16:17;;;;;;;1.98;0.70;;;;;;;9.97;100.00;97763.00;5097163;28;20079;-91
2023/03/10 05:18:48;;;;;;;5.43;1.02;;;;;;;10.39;100.00;97831.72;5089636;28;20076;-90
2023/03/10 05:21:21;;;;;;;6.30;1.20;;;;;;;10.39;100.00;97840.44;5106743;28;20452;-91
2023/03/10 05:23:52;;;;;;;4.32;1.02;;;;;;;10.10;100.00;97781.28;5082899;28;20119;-92
2023/03/10 05:26:31;;;;;;;4.40;0.70;;;;;;;10.38;100.00;97822.94;5087464;28;20052;-93
2023/03/10 05:29:04;;;;;;;5.25;1.20;;;;;;;10.42;100.00;97820.84;5099959;28;20066;-92
2023/03/10 05:31:38;;;;;;;5.07;0.90;;;;;;;10.26;100.00;97794.03;5090486;28;20048;-94
2023/03/10 05:34:06;;;;;;;7.30;1.25;;;;;;;10.32;100.00;97793.50;5066371;28;20044;-95
2023/03/10 05:36:55;;;;;;;3.47;1.20;;;;;;;10.39;100.00;97818.47;5094639;28;20093;-94
2023/03/10 05:39:31;;;;;;;3.65;0.90;;;;;;;10.34;100.00;97799.50;5082535;28;20044;-94
2023/03/10 05:42:16;;;;;;;4.53;0.98;;;;;;;10.46;100.00;97815.16;5102148;28;20048;-94
2023/03/10 05:45:04;;;;;;;5.93;1.00;;;;;;;10.12;100.00;97761.66;5104933;28;20032;-94
2023/03/10 05:48:06;;;;;;;3.47;0.95;;;;;;;10.03;100.00;97743.97;4956160;27;3391452;-94
2023/03/10 05:51:45;;;;;;;3.50;1.10;;;;;;;10.32;100.00;97798.81;5062004;28;20079;-95
2023/03/10 05:54:37;;;;;;;2.47;0.95;;;;;;;10.07;100.00;97761.22;5067545;28;20090;-94
2023/03/10 05:57:07;;;;;;;2.90;1.00;;;;;;;10.14;100.00;97767.66;5165787;22;20055;-94
2023/03/10 05:59:49;;;;;;;4.05;1.10;;;;;;;10.40;100.00;97805.09;5046002;28;20543;-94
2023/03/10 06:02:24;;;;;;;5.22;1.33;;;;;;;10.05;100.00;97755.25;5042516;28;20050;-94
2023/03/10 06:05:42;;;;;;;3.78;1.10;;;;;;;10.27;100.00;97816.88;5053760;28;20110;-95
2023/03/10 06:08:17;;;;;;;3.33;1.00;;;;;;;10.21;100.00;97805.03;5066465;28;20060;-94
2023/03/10 06:11:11;;;;;;;5.82;1.17;;;;;;;10.18;100.00;97819.34;5042545;28;20109;-94
2023/03/10 06:13:54;;;;;;;2.85;0.88;;;;;;;9.73;100.00;97760.66;5066725;28;20044;-92
2023/03/10 06:16:43;;;;;;;2.50;1.08;;;;;;;10.04;100.00;97817.03;5045831;28;20101;-92
2023/03/10 06:22:03;;;;;;;4.75;1.42;;;;;;;9.55;100.00;97735.81;5041561;28;20084;-93
2023/03/10 06:24:48;;;;;;;;;;;;;;;10.06;100.00;97811.63;5034380;28;20041;-92
2023/03/10 06:27:47;;;;;;;5.07;1.38;;;;;;;9.92;100.00;97794.25;5055530;28;20084;-95
2023/03/10 06:33:30;;;;;;;16.55;8.40;;;;;;;9.84;100.00;97791.44;5090480;22;20078;-93
2023/03/10 06:36:39;;;;;;;7.43;1.40;;;;;;;10.04;100.00;97818.84;5048657;28;20134;-92
2023/03/10 06:39:28;;;;;;;3.45;1.08;;;;;;;10.02;100.00;97815.47;5052355;28;20025;-93
2023/03/10 06:42:24;;;;;;;5.50;1.40;;;;;;;9.72;100.00;97766.91;5055204;28;20113;-95
2023/03/10 06:45:34;;;;;;;3.60;0.90;;;;;;;9.72;100.00;97764.28;5062264;28;20057;-94
2023/03/10 06:48:31;;;;;;;3.03;1.20;;;;;;;9.78;100.00;97779.59;5052071;28;20027;-93
2023/03/10 06:51:18;;;;;;;5.63;1.52;;;;;;;9.62;100.00;97718.44;5079855;28;20067;-92
2023/03/10 06:54:54;;;;;;;5.95;1.13;;;;;;;10.29;100.00;97823.72;5034864;28;20071;-95
2023/03/10 06:58:06;;;;;;;6.13;1.40;;;;;;;9.86;100.00;97755.16;5060069;28;20052;-95
2023/03/10 07:01:21;;;;;;;4.88;1.73;;;;;;;10.13;100.00;97821.53;5065503;28;20067;-96
2023/03/10 07:04:22;;;;;;;8.52;3.22;;;;;;;10.01;100.00;97822.56;5059387;28;20044;-94
2023/03/10 07:08:18;;;;;;;4.90;1.60;;;;;;;9.97;100.00;97807.94;5055422;28;20045;-93
2023/03/10 07:11:32;;;;;;;4.63;1.35;;;;;;;10.06;100.00;97808.97;4978329;28;20119;-94
2023/03/10 07:14:44;;;;;;;6.93;1.90;;;;;;;9.80;100.00;97766.25;5018815;28;20049;-94
2023/03/10 07:17:32;;;;;;;5.70;1.60;;;;;;;10.01;100.00;97795.28;4989811;28;20124;-94
2023/03/10 07:20:28;;;;;;;8.50;1.70;;;;;;;9.91;100.00;97778.56;5019530;28;20062;-94
2023/03/10 07:23:36;;;;;;;8.45;2.08;;;;;;;9.67;100.00;97740.03;5008785;28;20037;-92
2023/03/10 07:27:03;;;;;;;6.35;1.90;;;;;;;10.10;100.00;97797.97;5031861;28;20045;-94
2023/03/10 07:29:48;;;;;;;7.93;2.03;;;;;;;9.88;100.00;97763.78;5013135;28;20033;-94
2023/03/10 07:32:43;;;;;;;7.07;1.92;;;;;;;9.87;100.00;97761.28;5046721;23;20370;-95
2023/03/10 07:35:48;;;;;;;6.53;2.30;;;;;;;10.06;100.00;97787.81;5638389;23;20045;-95
2023/03/10 07:39:06;;;;;;;7.80;2.10;;;;;;;10.11;100.00;97806.75;5044882;28;20056;-93
2023/03/10 07:42:35;;;;;;;9.05;2.25;;;;;;;10.14;100.00;97796.75;5052744;28;20038;-93
2023/03/10 07:45:29;;;;;;;8.27;1.90;;;;;;;9.88;100.00;97753.22;5054923;28;20037;-95
2023/03/10 07:49:05;;;;;;;6.20;1.70;;;;;;;10.05;100.00;97797.56;5016406;28;20050;-92
2023/03/10 07:52:18;;;;;;;4.53;1.80;;;;;;;9.95;100.00;97801.94;5006660;28;20040;-94
2023/03/10 07:56:08;;;;;;;7.32;1.52;;;;;;;9.45;100.00;97751.56;5163961;22;20077;-95
2023/03/10 07:59:25;;;;;;;5.40;1.98;;;;;;;9.58;100.00;97772.53;5002702;28;20048;-95
2023/03/10 08:07:42;;;;;;;8.05;2.00;;;;;;;9.83;100.00;97803.00;5195230;23;20060;-91
2023/03/10 08:31:16;;;;;;;7.18;1.63;;;;;;;9.54;100.00;97817.81;4907680;29;20058;-91
2023/03/10 08:33:58;;;;;;;5.18;1.42;;;;;;;9.37;100.00;97801.56;4882547;29;20055;-90
2023/03/10 08:36:39;;;;;;;5.55;1.25;;;;;;;9.20;100.00;97793.38;4905871;29;20044;-89
2023/03/10 08:39:06;;;;;;;8.63;1.48;;;;;;;9.07;100.00;97788.28;4917348;29;20112;-88
2023/03/10 08:41:40;;;;;;;;;;;;;;;9.29;100.00;97827.75;4919612;29;20135;-91
2023/03/10 08:44:25;;;;;;;7.50;1.70;;;;;;;9.34;100.00;97832.69;4917962;29;19919;-90
2023/03/10 08:48:14;;;;;;;8.38;1.55;;;;;;;8.71;100.00;97713.78;4914867;29;20052;-91
2023/03/10 08:51:44;;;;;;;7.30;1.88;;;;;;;9.09;100.00;97757.31;4903990;29;20053;-91
2023/03/10 08:55:37;;;;;;;5.30;1.25;;;;;;;9.30;100.00;97778.44;4905341;29;20483;-90
2023/03/10 08:59:11;;;;;;;6.13;1.52;;;;;;;9.73;100.00;97849.69;4879567;29;20041;-89
2023/03/10 09:02:20;;;;;;;7.13;1.40;;;;;;;9.58;100.00;97814.81;4869680;29;20072;-91
2023/03/10 09:05:17;;;;;;;5.18;1.52;;;;;;;9.89;100.00;97850.06;4889487;29;20518;-90
2023/03/10 09:07:48;;;;;;;5.35;1.25;;;;;;;9.95;100.00;97846.88;4887893;29;20041;-90
2023/03/10 09:10:44;;;;;;;5.47;1.02;;;;;;;10.03;100.00;97848.88;4867762;29;20108;-91
2023/03/10 09:13:15;;;;;;;6.43;1.38;;;;;;;9.63;100.00;97806.47;4871983;29;20097;-90
2023/03/10 09:16:00;;;;;;;5.80;1.10;;;;;;;9.86;100.00;97829.16;4897659;29;20062;-88
2023/03/10 09:18:29;;;;;;;6.05;0.90;;;;;;;10.09;100.00;97843.06;4886054;29;20104;-88
2023/03/10 09:21:05;;;;;;;6.18;1.05;;;;;;;10.12;100.00;97862.16;4885161;29;20068;-89
2023/03/10 09:24:06;;;;;;;4.70;0.80;;;;;;;9.96;100.00;97816.84;4853285;29;20058;-90
2023/03/10 09:26:58;;;;;;;5.55;1.05;;;;;;;10.31;100.00;97866.75;4806382;29;20046;-90
2023/03/10 09:29:31;;;;;;;2.65;0.70;;;;;;;10.05;100.00;97808.13;4851775;29;20049;-92
2023/03/10 09:32:24;;;;;;;3.72;0.60;;;;;;;10.11;100.00;97826.09;4866975;29;20418;-92
2023/03/10 09:35:17;;;;;;;6.10;1.05;;;;;;;10.04;100.00;97790.59;4873567;29;20103;-91
2023/03/10 09:38:07;;;;;;;3.35;0.75;;;;;;;10.52;100.00;97866.72;4864402;29;20089;-91
2023/03/10 09:40:44;;;;;;;5.40;1.05;;;;;;;10.42;100.00;97865.81;4857241;29;20525;-91
2023/03/10 09:43:29;;;;;;;5.13;1.25;;;;;;;9.91;100.00;97803.19;4833260;29;20117;-91
2023/03/10 09:46:53;;;;;;;4.45;1.00;;;;;;;9.83;100.00;97805.63;4853805;29;20129;-90
2023/03/10 09:50:18;;;;;;;5.47;1.10;;;;;;;10.11;100.00;97855.19;4835422;29;20046;-93
2023/03/10 09:57:08;;;;;;;9.55;1.55;;;;;;;10.05;100.00;97866.31;4875644;29;20136;-90
2023/03/10 09:59:55;;;;;;;5.65;1.30;;;;;;;10.07;100.00;97822.03;4883513;29;20097;-94
2023/03/10 10:03:17;;;;;;;3.75;1.35;;;;;;;10.35;100.00;97864.69;4917518;29;20055;-91
2023/03/10 10:06:27;;;;;;;5.05;1.10;;;;;;;10.81;100.00;97867.63;4905647;29;20051;-92
2023/03/10 10:09:44;;;;;;;6.65;1.33;;;;;;;10.89;100.00;97864.31;5362676;23;20062;-91
2023/03/10 10:12:27;;;;;;;6.82;1.25;;;;;;;10.70;100.00;97857.16;4944873;28;20043;-90
2023/03/10 10:15:21;;;;;;;2.97;0.85;;;;;;;10.26;100.00;97809.91;4948841;29;20047;-92
2023/03/10 10:18:32;;;;;;;7.20;1.35;;;;;;;10.54;100.00;97862.13;4948366;28;20102;-94
2023/03/10 10:32:17;;;;;;;3.40;1.10;;;;;;;10.74;100.00;97878.88;5066905;23;20043;-92
2023/03/10 10:35:13;;;;;;;7.50;1.23;;;;;;;10.53;100.00;97863.94;4923100;29;20052;-94
2023/03/10 10:38:00;;;;;;;4.60;1.25;;;;;;;10.48;100.00;97847.59;4926828;29;20130;-93
2023/03/10 10:41:28;;;;;;;7.25;1.13;;;;;;;10.15;100.00;97822.22;4942635;29;20039;-93
2023/03/10 10:44:40;;;;;;;3.38;0.90;;;;;;;10.38;100.00;97875.84;4895672;29;20047;-92
2023/03/10 10:48:44;;;;;;;3.88;0.80;;;;;;;10.35;100.00;97877.91;4923587;29;20044;-91
2023/03/10 10:52:22;;;;;;;5.05;1.00;;;;;;;9.99;100.00;97806.00;4948650;29;20042;-92
2023/03/10 10:55:35;;;;;;;5.45;1.85;;;;;;;10.63;100.00;97871.06;4948050;29;20046;-93
2023/03/10 10:58:32;;;;;;;2.72;0.70;;;;;;;10.88;100.00;97865.28;4932528;29;20067;-92
2023/03/10 11:01:15;;;;;;;3.70;1.00;;;;;;;11.28;100.00;97864.38;4932603;29;20036;-91
2023/03/10 11:04:17;;;;;;;3.97;0.70;;;;;;;11.26;100.00;97814.19;4938281;29;20047;-93
2023/03/10 11:07:27;;;;;;;4.28;0.90;;;;;;;11.51;100.00;97856.00;4944940;29;20059;-92
2023/03/10 11:09:57;;;;;;;3.88;0.90;;;;;;;11.46;100.00;97868.03;4931324;29;20052;-92
2023/03/10 11:12:55;;;;;;;2.88;1.08;;;;;;;11.22;100.00;97807.47;4931985;29;20059;-91
2023/03/10 11:16:20;;;;;;;3.15;0.90;;;;;;;11.59;100.00;97850.03;4924104;29;20051;-93
2023/03/10 11:19:30;;;;;;;4.05;0.85;;;;;;;11.68;100.00;97856.28;4948347;29;20074;-92
2023/03/10 11:23:18;;;;;;;3.13;1.30;;;;;;;12.03;100.00;97864.53;4960221;28;20062;-95
2023/03/10 11:26:48;;;;;;;4.32;1.20;;;;;;;11.95;100.00;97869.72;4960049;28;20043;-94
2023/03/10 11:29:33;;;;;;;4.45;1.80;;;;;;;11.91;100.00;97850.59;4934256;29;20051;-93
2023/03/10 11:32:58;;;;;;;2.90;1.50;;;;;;;11.37;100.00;97776.09;4950066;29;20055;-95
2023/03/10 11:36:46;;;;;;;1.25;0.88;;;;;;;11.65;100.00;97853.94;4944037;29;20051;-91
2023/03/10 11:39:42;;;;;;;3.15;0.80;;;;;;;11.30;100.00;97828.84;4948630;29;20521;-92
2023/03/10 11:42:48;;;;;;;3.88;0.80;;;;;;;11.27;100.00;97852.94;4931252;29;20040;-93
2023/03/10 11:45:53;;;;;;;2.08;0.47;;;;;;;10.66;100.00;97801.97;4936019;29;20047;-92
2023/03/10 11:49:26;;;;;;;0.77;0.50;;;;;;;10.75;100.00;97828.47;4933412;29;20074;-92
2023/03/10 11:52:19;;;;;;;2.90;1.05;;;;;;;11.03;100.00;97848.03;4926767;29;20054;-94
2023/03/10 11:55:33;;;;;;;3.00;0.95;;;;;;;11.27;100.00;97846.81;4952604;29;20040;-93
2023/03/10 11:58:24;;;;;;;2.72;1.33;;;;;;;11.09;100.00;97793.69;4948379;29;20042;-93
2023/03/10 12:01:13;;;;;;;2.75;0.95;;;;;;;10.93;100.00;97743.91;4955571;29;20052;-94
2023/03/10 12:04:21;;;;;;;2.22;0.55;;;;;;;11.44;100.00;97823.13;4923615;29;20066;-91
2023/03/10 12:07:12;;;;;;;1.73;1.02;;;;;;;11.18;100.00;97798.97;4947226;29;20457;-92
2023/03/10 12:10:16;;;;;;;2.03;0.82;;;;;;;10.98;100.00;97770.00;4928098;29;20079;-92
2023/03/10 12:13:17;;;;;;;1.85;0.60;;;;;;;11.63;100.00;97827.56;4945835;29;20083;-93
2023/03/10 12:16:03;;;;;;;0.52;0.40;;;;;;;11.59;100.00;97820.88;4917659;29;20555;-94
2023/03/10 12:18:50;;;;;;;4.00;0.93;;;;;;;11.64;100.00;97831.91;4910603;29;20040;-93
2023/03/10 12:21:28;;;;;;;1.55;0.60;;;;;;;11.10;100.00;97732.63;4930695;29;20078;-93
2023/03/10 12:24:02;;;;;;;0.77;0.52;;;;;;;11.20;100.00;97775.00;4935741;29;20103;-92
2023/03/10 12:26:59;;;;;;;0.50;0.40;;;;;;;11.14;100.00;97786.16;4945292;28;20099;-93
2023/03/10 12:29:50;;;;;;;1.38;0.40;;;;;;;11.50;100.00;97819.88;4943317;28;20054;-93
2023/03/10 12:36:42;;;;;;;1.25;0.47;;;;;;;11.07;100.00;97756.75;4936763;29;20082;-95
2023/03/10 12:39:44;;;;;;;1.77;0.68;;;;;;;11.49;100.00;97804.16;4923074;29;20044;-94
2023/03/10 12:42:36;;;;;;;2.15;0.60;;;;;;;11.11;100.00;97791.75;4930447;29;20089;-93
2023/03/10 12:46:23;;;;;;;0.52;0.40;;;;;;;10.60;100.00;97755.72;4921868;29;20040;-92
2023/03/10 12:49:56;;;;;;;4.03;1.08;;;;;;;10.87;100.00;97805.34;4936730;29;20051;-91
2023/03/10 12:52:54;;;;;;;2.42;0.70;;;;;;;10.63;100.00;97750.16;4918534;29;20040;-92
2023/03/10 12:56:20;;;;;;;1.98;1.50;;;;;;;11.11;100.00;97789.94;4919590;29;20088;-90
2023/03/10 12:59:06;;;;;;;1.75;0.80;;;;;;;11.09;100.00;97791.88;4900179;29;20056;-92
2023/03/10 13:01:59;;;;;;;1.30;0.50;;;;;;;10.63;100.00;97730.78;4901095;29;20482;-90
2023/03/10 13:05:18;;;;;;;1.60;0.95;;;;;;;10.92;100.00;97789.91;4930685;29;20207;-89
2023/03/10 13:08:44;;;;;;;0.88;0.65;;;;;;;10.80;100.00;97793.66;4925286;29;20117;-93
2023/03/10 13:12:06;;;;;;;5.07;2.17;;;;;;;10.14;100.00;97749.16;4928671;29;20084;-91
2023/03/10 13:15:22;;;;;;;3.15;0.90;;;;;;;10.07;100.00;97750.66;4919163;29;20055;-91
2023/03/10 13:18:43;;;;;;;1.27;0.70;;;;;;;10.38;100.00;97793.84;4922517;29;20100;-90
2023/03/10 13:22:00;;;;;;;6.72;1.70;;;;;;;10.35;100.00;97799.38;4919021;29;20052;-90
2023/03/10 13:25:14;;;;;;;4.15;0.88;;;;;;;9.95;100.00;97770.22;4909395;29;20087;-90
2023/03/10 13:27:56;;;;;;;2.60;0.90;;;;;;;9.78;100.00;97769.00;4921587;29;20052;-93
2023/03/10 13:30:35;;;;;;;6.30;2.30;;;;;;;9.89;100.00;97762.00;4895370;29;20107;-93
2023/03/10 13:33:27;;;;;;;3.15;1.17;;;;;;;9.57;100.00;97688.13;4946495;29;20071;-91
2023/03/10 13:36:43;;;;;;;1.88;0.75;;;;;;;10.18;100.00;97771.75;4934574;29;20043;-91
2023/03/10 13:40:00;;;;;;;2.67;1.55;;;;;;;9.87;100.00;97709.25;4941850;28;20044;-93
2023/03/10 13:51:28;;;;;;;2.05;0.80;;;;;;;9.56;100.00;97660.88;5316722;23;20176;-89
2023/03/10 13:55:11;;;;;;;1.45;0.70;;;;;;;10.17;100.00;97750.69;4922905;29;20070;-89
2023/03/10 13:57:56;;;;;;;3.38;0.90;;;;;;;10.13;100.00;97754.56;4918649;29;20108;-87
2023/03/10 14:01:31;;;;;;;4.75;0.98;;;;;;;9.70;100.00;97692.22;4905902;29;20075;-89
2023/03/10 14:04:59;;;;;;;2.53;0.65;;;;;;;10.17;100.00;97769.22;4908349;28;20047;-89
2023/03/10 14:08:31;;;;;;;;;;;;;;;;;;;;;
2023/03/10 14:11:47;;;;;;;1.95;0.90;;;;;;;10.03;100.00;97757.19;4935152;29;20030;-89
2023/03/10 14:14:41;;;;;;;6.38;1.27;;;;;;;9.95;100.00;97758.81;4910993;29;20124;-87
2023/03/10 14:17:40;;;;;;;7.20;2.67;;;;;;;9.24;100.00;97642.50;4917562;29;20083;-89
2023/03/10 14:20:51;;;;;;;2.15;1.10;;;;;;;9.45;100.00;97690.81;4930157;29;20128;-89
2023/03/10 14:23:41;;;;;;;2.65;0.90;;;;;;;9.73;100.00;97736.03;4915991;29;20048;-87
2023/03/10 14:26:49;;;;;;;1.20;0.70;;;;;;;9.49;100.00;97702.81;5002572;23;20144;-87
2023/03/10 14:29:31;;;;;;;2.20;0.88;;;;;;;9.75;100.00;97748.16;4945330;29;20051;-88
2023/03/10 14:32:32;;;;;;;3.05;1.10;;;;;;;9.30;100.00;97683.38;4935485;29;20099;-90
2023/03/10 14:35:21;;;;;;;3.40;1.13;;;;;;;9.82;100.00;97769.59;4931757;29;20470;-87